sensor_id;sensor_type;location;lat;lon;timestamp;P1;durP1;ratioP1;P2;durP2;ratioP2
25481;SDS011;13395;50.752;4.268;2023-07-31T00:00:23;13.55;;;4.95;;
25481;SDS011;13395;50.752;4.268;2023-07-31T00:02:48;20.17;;;5.32;;
25481;SDS011;13395;50.752;4.268;2023-07-31T00:05:14;12.77;;;4.72;;
25481;SDS011;13395;50.752;4.268;2023-07-31T00:07:40;12.93;;;4.47;;
25481;SDS011;13395;50.752;4.268;2023-07-31T00:10:06;12.40;;;5.53;;
25481;SDS011;13395;50.752;4.268;2023-07-31T00:12:32;16.90;;;5.30;;
25481;SDS011;13395;50.752;4.268;2023-07-31T00:14:57;13.82;;;5.95;;
25481;SDS011;13395;50.752;4.268;2023-07-31T00:17:23;18.33;;;5.55;;
25481;SDS011;13395;50.752;4.268;2023-07-31T00:19:49;14.00;;;5.45;;
25481;SDS011;13395;50.752;4.268;2023-07-31T00:22:15;19.42;;;5.18;;
25481;SDS011;13395;50.752;4.268;2023-07-31T00:24:41;14.93;;;6.43;;
25481;SDS011;13395;50.752;4.268;2023-07-31T00:27:07;13.98;;;5.75;;
25481;SDS011;13395;50.752;4.268;2023-07-31T00:29:32;14.38;;;5.07;;
25481;SDS011;13395;50.752;4.268;2023-07-31T00:31:58;11.95;;;5.18;;
25481;SDS011;13395;50.752;4.268;2023-07-31T00:34:23;12.43;;;4.70;;
25481;SDS011;13395;50.752;4.268;2023-07-31T00:36:49;11.60;;;4.55;;
25481;SDS011;13395;50.752;4.268;2023-07-31T00:39:14;12.75;;;5.32;;
25481;SDS011;13395;50.752;4.268;2023-07-31T00:41:40;14.60;;;4.85;;
25481;SDS011;13395;50.752;4.268;2023-07-31T00:44:05;14.77;;;4.57;;
25481;SDS011;13395;50.752;4.268;2023-07-31T00:46:31;14.52;;;5.82;;
25481;SDS011;13395;50.752;4.268;2023-07-31T00:48:56;19.63;;;5.72;;
25481;SDS011;13395;50.752;4.268;2023-07-31T00:51:22;14.85;;;5.53;;
25481;SDS011;13395;50.752;4.268;2023-07-31T00:53:48;11.32;;;5.20;;
25481;SDS011;13395;50.752;4.268;2023-07-31T00:56:14;16.08;;;5.70;;
25481;SDS011;13395;50.752;4.268;2023-07-31T00:58:40;16.65;;;5.30;;
25481;SDS011;13395;50.752;4.268;2023-07-31T01:01:06;14.90;;;5.45;;
25481;SDS011;13395;50.752;4.268;2023-07-31T01:03:31;11.40;;;4.90;;
25481;SDS011;13395;50.752;4.268;2023-07-31T01:08:56;13.07;;;4.88;;
25481;SDS011;13395;50.752;4.268;2023-07-31T01:11:46;11.23;;;4.60;;
25481;SDS011;13395;50.752;4.268;2023-07-31T01:14:17;13.20;;;5.45;;
25481;SDS011;13395;50.752;4.268;2023-07-31T01:16:42;17.27;;;5.32;;
25481;SDS011;13395;50.752;4.268;2023-07-31T01:19:08;15.10;;;5.03;;
25481;SDS011;13395;50.752;4.268;2023-07-31T01:21:41;13.40;;;5.55;;
25481;SDS011;13395;50.752;4.268;2023-07-31T01:27:28;13.80;;;6.50;;
25481;SDS011;13395;50.752;4.268;2023-07-31T01:30:00;15.75;;;5.72;;
25481;SDS011;13395;50.752;4.268;2023-07-31T01:32:35;19.10;;;5.60;;
25481;SDS011;13395;50.752;4.268;2023-07-31T01:35:04;14.80;;;6.30;;
25481;SDS011;13395;50.752;4.268;2023-07-31T01:37:30;14.80;;;6.28;;
25481;SDS011;13395;50.752;4.268;2023-07-31T01:39:55;13.15;;;5.53;;
25481;SDS011;13395;50.752;4.268;2023-07-31T01:42:21;11.57;;;6.40;;
25481;SDS011;13395;50.752;4.268;2023-07-31T01:44:46;12.65;;;6.22;;
25481;SDS011;13395;50.752;4.268;2023-07-31T01:47:12;11.00;;;5.68;;
25481;SDS011;13395;50.752;4.268;2023-07-31T01:49:37;16.60;;;5.63;;
25481;SDS011;13395;50.752;4.268;2023-07-31T01:52:03;16.30;;;8.95;;
25481;SDS011;13395;50.752;4.268;2023-07-31T01:54:29;11.00;;;5.43;;
25481;SDS011;13395;50.752;4.268;2023-07-31T01:56:55;11.07;;;5.75;;
25481;SDS011;13395;50.752;4.268;2023-07-31T01:59:20;15.27;;;6.13;;
25481;SDS011;13395;50.752;4.268;2023-07-31T02:01:46;16.75;;;6.68;;
25481;SDS011;13395;50.752;4.268;2023-07-31T02:04:11;13.77;;;5.90;;
25481;SDS011;13395;50.752;4.268;2023-07-31T02:06:37;10.50;;;5.30;;
25481;SDS011;13395;50.752;4.268;2023-07-31T02:09:04;12.23;;;5.95;;
25481;SDS011;13395;50.752;4.268;2023-07-31T02:11:29;16.92;;;5.30;;
25481;SDS011;13395;50.752;4.268;2023-07-31T02:13:55;12.75;;;6.07;;
25481;SDS011;13395;50.752;4.268;2023-07-31T02:16:20;9.48;;;5.90;;
25481;SDS011;13395;50.752;4.268;2023-07-31T02:18:46;12.13;;;4.95;;
25481;SDS011;13395;50.752;4.268;2023-07-31T02:21:11;12.07;;;4.85;;
25481;SDS011;13395;50.752;4.268;2023-07-31T02:23:37;8.55;;;4.63;;
25481;SDS011;13395;50.752;4.268;2023-07-31T02:26:03;12.95;;;4.70;;
25481;SDS011;13395;50.752;4.268;2023-07-31T02:28:29;11.15;;;5.45;;
25481;SDS011;13395;50.752;4.268;2023-07-31T02:30:55;8.07;;;4.38;;
25481;SDS011;13395;50.752;4.268;2023-07-31T02:33:20;11.15;;;4.85;;
25481;SDS011;13395;50.752;4.268;2023-07-31T02:35:46;9.32;;;4.38;;
25481;SDS011;13395;50.752;4.268;2023-07-31T02:38:11;8.50;;;4.50;;
25481;SDS011;13395;50.752;4.268;2023-07-31T02:40:37;11.57;;;4.22;;
25481;SDS011;13395;50.752;4.268;2023-07-31T02:43:05;12.73;;;4.53;;
25481;SDS011;13395;50.752;4.268;2023-07-31T02:45:30;8.65;;;4.32;;
25481;SDS011;13395;50.752;4.268;2023-07-31T02:47:56;7.20;;;4.35;;
25481;SDS011;13395;50.752;4.268;2023-07-31T02:50:21;6.70;;;4.10;;
25481;SDS011;13395;50.752;4.268;2023-07-31T02:52:47;6.22;;;3.70;;
25481;SDS011;13395;50.752;4.268;2023-07-31T02:55:12;8.35;;;4.03;;
25481;SDS011;13395;50.752;4.268;2023-07-31T02:57:38;8.50;;;4.22;;
25481;SDS011;13395;50.752;4.268;2023-07-31T03:00:04;8.40;;;3.92;;
25481;SDS011;13395;50.752;4.268;2023-07-31T03:02:31;5.78;;;3.97;;
25481;SDS011;13395;50.752;4.268;2023-07-31T03:04:57;6.68;;;3.95;;
25481;SDS011;13395;50.752;4.268;2023-07-31T03:07:22;7.05;;;3.85;;
25481;SDS011;13395;50.752;4.268;2023-07-31T03:09:48;11.05;;;3.97;;
25481;SDS011;13395;50.752;4.268;2023-07-31T03:12:14;9.13;;;3.80;;
25481;SDS011;13395;50.752;4.268;2023-07-31T03:14:40;11.25;;;3.63;;
25481;SDS011;13395;50.752;4.268;2023-07-31T03:17:05;7.82;;;3.83;;
25481;SDS011;13395;50.752;4.268;2023-07-31T03:19:31;11.13;;;3.97;;
25481;SDS011;13395;50.752;4.268;2023-07-31T03:21:57;10.45;;;3.92;;
25481;SDS011;13395;50.752;4.268;2023-07-31T03:24:23;7.53;;;4.47;;
25481;SDS011;13395;50.752;4.268;2023-07-31T03:26:49;5.80;;;3.97;;
25481;SDS011;13395;50.752;4.268;2023-07-31T03:29:15;8.65;;;4.45;;
25481;SDS011;13395;50.752;4.268;2023-07-31T03:31:40;9.13;;;3.85;;
25481;SDS011;13395;50.752;4.268;2023-07-31T03:34:06;8.48;;;4.00;;
25481;SDS011;13395;50.752;4.268;2023-07-31T03:36:31;8.32;;;3.63;;
25481;SDS011;13395;50.752;4.268;2023-07-31T03:38:57;10.15;;;4.30;;
25481;SDS011;13395;50.752;4.268;2023-07-31T03:41:23;8.00;;;4.38;;
25481;SDS011;13395;50.752;4.268;2023-07-31T03:43:49;10.93;;;5.35;;
25481;SDS011;13395;50.752;4.268;2023-07-31T03:46:21;8.93;;;4.20;;
25481;SDS011;13395;50.752;4.268;2023-07-31T03:48:47;11.82;;;4.65;;
25481;SDS011;13395;50.752;4.268;2023-07-31T03:51:13;10.02;;;3.42;;
25481;SDS011;13395;50.752;4.268;2023-07-31T03:53:39;12.88;;;4.60;;
25481;SDS011;13395;50.752;4.268;2023-07-31T03:56:04;8.23;;;3.58;;
25481;SDS011;13395;50.752;4.268;2023-07-31T03:58:30;8.05;;;3.83;;
25481;SDS011;13395;50.752;4.268;2023-07-31T04:00:56;13.88;;;4.10;;
25481;SDS011;13395;50.752;4.268;2023-07-31T04:03:21;5.78;;;3.80;;
25481;SDS011;13395;50.752;4.268;2023-07-31T04:05:47;8.05;;;3.65;;
25481;SDS011;13395;50.752;4.268;2023-07-31T04:08:12;9.05;;;4.20;;
25481;SDS011;13395;50.752;4.268;2023-07-31T04:10:38;10.85;;;4.30;;
25481;SDS011;13395;50.752;4.268;2023-07-31T04:13:03;7.90;;;3.70;;
25481;SDS011;13395;50.752;4.268;2023-07-31T04:15:29;11.82;;;3.75;;
25481;SDS011;13395;50.752;4.268;2023-07-31T04:17:54;14.18;;;4.05;;
25481;SDS011;13395;50.752;4.268;2023-07-31T04:20:20;7.93;;;3.92;;
25481;SDS011;13395;50.752;4.268;2023-07-31T04:22:46;6.85;;;4.03;;
25481;SDS011;13395;50.752;4.268;2023-07-31T04:25:12;12.00;;;4.18;;
25481;SDS011;13395;50.752;4.268;2023-07-31T04:27:37;9.82;;;3.83;;
25481;SDS011;13395;50.752;4.268;2023-07-31T04:30:04;7.10;;;3.65;;
25481;SDS011;13395;50.752;4.268;2023-07-31T04:32:30;8.15;;;4.00;;
25481;SDS011;13395;50.752;4.268;2023-07-31T04:34:55;12.95;;;4.07;;
25481;SDS011;13395;50.752;4.268;2023-07-31T04:37:21;7.88;;;3.65;;
25481;SDS011;13395;50.752;4.268;2023-07-31T04:39:46;7.75;;;4.07;;
25481;SDS011;13395;50.752;4.268;2023-07-31T04:42:12;7.03;;;3.63;;
25481;SDS011;13395;50.752;4.268;2023-07-31T04:44:38;12.00;;;3.97;;
25481;SDS011;13395;50.752;4.268;2023-07-31T04:47:03;7.60;;;3.92;;
25481;SDS011;13395;50.752;4.268;2023-07-31T04:49:29;5.25;;;3.53;;
25481;SDS011;13395;50.752;4.268;2023-07-31T04:51:55;9.68;;;3.72;;
25481;SDS011;13395;50.752;4.268;2023-07-31T04:54:20;15.70;;;3.72;;
25481;SDS011;13395;50.752;4.268;2023-07-31T04:56:46;7.93;;;4.00;;
25481;SDS011;13395;50.752;4.268;2023-07-31T04:59:12;9.60;;;4.13;;
25481;SDS011;13395;50.752;4.268;2023-07-31T05:01:38;8.30;;;3.45;;
25481;SDS011;13395;50.752;4.268;2023-07-31T05:04:03;6.88;;;3.85;;
25481;SDS011;13395;50.752;4.268;2023-07-31T05:06:29;10.25;;;4.78;;
25481;SDS011;13395;50.752;4.268;2023-07-31T05:08:54;8.60;;;4.10;;
25481;SDS011;13395;50.752;4.268;2023-07-31T05:11:20;8.60;;;3.13;;
25481;SDS011;13395;50.752;4.268;2023-07-31T05:13:45;8.55;;;4.05;;
25481;SDS011;13395;50.752;4.268;2023-07-31T05:16:11;8.73;;;4.30;;
25481;SDS011;13395;50.752;4.268;2023-07-31T05:18:37;7.70;;;4.35;;
25481;SDS011;13395;50.752;4.268;2023-07-31T05:21:02;10.95;;;3.88;;
25481;SDS011;13395;50.752;4.268;2023-07-31T05:23:28;8.73;;;3.97;;
25481;SDS011;13395;50.752;4.268;2023-07-31T05:25:54;9.70;;;4.07;;
25481;SDS011;13395;50.752;4.268;2023-07-31T05:28:21;10.85;;;4.22;;
25481;SDS011;13395;50.752;4.268;2023-07-31T05:30:47;8.18;;;3.80;;
25481;SDS011;13395;50.752;4.268;2023-07-31T05:33:12;11.00;;;4.40;;
25481;SDS011;13395;50.752;4.268;2023-07-31T05:35:38;8.35;;;3.65;;
25481;SDS011;13395;50.752;4.268;2023-07-31T05:38:03;8.55;;;3.88;;
25481;SDS011;13395;50.752;4.268;2023-07-31T05:40:31;10.38;;;4.43;;
25481;SDS011;13395;50.752;4.268;2023-07-31T05:42:57;9.27;;;3.80;;
25481;SDS011;13395;50.752;4.268;2023-07-31T05:45:23;8.70;;;4.63;;
25481;SDS011;13395;50.752;4.268;2023-07-31T05:47:50;9.85;;;3.55;;
25481;SDS011;13395;50.752;4.268;2023-07-31T05:50:15;11.15;;;4.28;;
25481;SDS011;13395;50.752;4.268;2023-07-31T05:52:41;10.18;;;4.28;;
25481;SDS011;13395;50.752;4.268;2023-07-31T05:55:07;7.65;;;4.25;;
25481;SDS011;13395;50.752;4.268;2023-07-31T05:57:33;5.93;;;2.97;;
25481;SDS011;13395;50.752;4.268;2023-07-31T05:59:58;9.18;;;4.00;;
25481;SDS011;13395;50.752;4.268;2023-07-31T06:02:24;8.23;;;3.80;;
25481;SDS011;13395;50.752;4.268;2023-07-31T06:04:50;11.00;;;4.35;;
25481;SDS011;13395;50.752;4.268;2023-07-31T06:07:15;8.10;;;3.88;;
25481;SDS011;13395;50.752;4.268;2023-07-31T06:09:41;8.55;;;4.35;;
25481;SDS011;13395;50.752;4.268;2023-07-31T06:12:06;12.15;;;4.00;;
25481;SDS011;13395;50.752;4.268;2023-07-31T06:14:32;6.15;;;3.40;;
25481;SDS011;13395;50.752;4.268;2023-07-31T06:16:58;9.07;;;4.25;;
25481;SDS011;13395;50.752;4.268;2023-07-31T06:19:23;7.80;;;3.67;;
25481;SDS011;13395;50.752;4.268;2023-07-31T06:21:49;8.80;;;3.92;;
25481;SDS011;13395;50.752;4.268;2023-07-31T06:24:15;10.55;;;3.83;;
25481;SDS011;13395;50.752;4.268;2023-07-31T06:26:44;9.90;;;3.83;;
25481;SDS011;13395;50.752;4.268;2023-07-31T06:29:09;6.70;;;4.03;;
25481;SDS011;13395;50.752;4.268;2023-07-31T06:31:35;9.25;;;3.58;;
25481;SDS011;13395;50.752;4.268;2023-07-31T06:34:00;8.02;;;4.00;;
25481;SDS011;13395;50.752;4.268;2023-07-31T06:36:26;9.45;;;4.88;;
25481;SDS011;13395;50.752;4.268;2023-07-31T06:38:52;9.55;;;3.67;;
25481;SDS011;13395;50.752;4.268;2023-07-31T06:41:17;9.50;;;3.80;;
25481;SDS011;13395;50.752;4.268;2023-07-31T06:43:43;6.82;;;3.47;;
25481;SDS011;13395;50.752;4.268;2023-07-31T06:46:08;6.95;;;3.40;;
25481;SDS011;13395;50.752;4.268;2023-07-31T06:48:34;7.03;;;3.45;;
25481;SDS011;13395;50.752;4.268;2023-07-31T06:51:01;5.28;;;3.25;;
25481;SDS011;13395;50.752;4.268;2023-07-31T06:53:27;9.93;;;4.00;;
25481;SDS011;13395;50.752;4.268;2023-07-31T06:55:53;8.13;;;3.70;;
25481;SDS011;13395;50.752;4.268;2023-07-31T06:58:19;6.90;;;3.17;;
25481;SDS011;13395;50.752;4.268;2023-07-31T07:00:45;6.85;;;3.40;;
25481;SDS011;13395;50.752;4.268;2023-07-31T07:03:10;7.90;;;3.15;;
25481;SDS011;13395;50.752;4.268;2023-07-31T07:05:36;4.63;;;2.60;;
25481;SDS011;13395;50.752;4.268;2023-07-31T07:08:02;7.30;;;3.40;;
25481;SDS011;13395;50.752;4.268;2023-07-31T07:10:27;7.35;;;3.00;;
25481;SDS011;13395;50.752;4.268;2023-07-31T07:12:53;6.00;;;3.35;;
25481;SDS011;13395;50.752;4.268;2023-07-31T07:15:20;11.43;;;3.00;;
25481;SDS011;13395;50.752;4.268;2023-07-31T07:17:46;7.55;;;2.78;;
25481;SDS011;13395;50.752;4.268;2023-07-31T07:20:12;8.63;;;2.70;;
25481;SDS011;13395;50.752;4.268;2023-07-31T07:22:37;6.10;;;2.47;;
25481;SDS011;13395;50.752;4.268;2023-07-31T07:25:03;7.95;;;3.17;;
25481;SDS011;13395;50.752;4.268;2023-07-31T07:27:29;7.95;;;2.45;;
25481;SDS011;13395;50.752;4.268;2023-07-31T07:29:55;10.60;;;3.17;;
25481;SDS011;13395;50.752;4.268;2023-07-31T07:32:21;6.80;;;2.92;;
25481;SDS011;13395;50.752;4.268;2023-07-31T07:34:47;7.63;;;2.88;;
25481;SDS011;13395;50.752;4.268;2023-07-31T07:37:13;19.88;;;3.25;;
25481;SDS011;13395;50.752;4.268;2023-07-31T07:39:39;5.57;;;2.97;;
25481;SDS011;13395;50.752;4.268;2023-07-31T07:42:06;6.47;;;3.03;;
25481;SDS011;13395;50.752;4.268;2023-07-31T07:44:31;5.38;;;2.95;;
25481;SDS011;13395;50.752;4.268;2023-07-31T07:46:57;7.18;;;2.42;;
25481;SDS011;13395;50.752;4.268;2023-07-31T07:49:23;6.88;;;2.80;;
25481;SDS011;13395;50.752;4.268;2023-07-31T07:51:48;10.38;;;2.95;;
25481;SDS011;13395;50.752;4.268;2023-07-31T07:54:14;7.80;;;2.95;;
25481;SDS011;13395;50.752;4.268;2023-07-31T07:56:42;10.40;;;3.30;;
25481;SDS011;13395;50.752;4.268;2023-07-31T07:59:07;5.47;;;2.80;;
25481;SDS011;13395;50.752;4.268;2023-07-31T08:01:33;7.10;;;3.25;;
25481;SDS011;13395;50.752;4.268;2023-07-31T08:03:59;8.05;;;2.90;;
25481;SDS011;13395;50.752;4.268;2023-07-31T08:06:25;8.20;;;3.47;;
25481;SDS011;13395;50.752;4.268;2023-07-31T08:08:50;5.40;;;3.08;;
25481;SDS011;13395;50.752;4.268;2023-07-31T08:11:16;10.40;;;2.67;;
25481;SDS011;13395;50.752;4.268;2023-07-31T08:13:41;6.60;;;2.42;;
25481;SDS011;13395;50.752;4.268;2023-07-31T08:16:07;5.65;;;2.78;;
25481;SDS011;13395;50.752;4.268;2023-07-31T08:18:33;9.55;;;2.83;;
25481;SDS011;13395;50.752;4.268;2023-07-31T08:20:59;14.00;;;3.28;;
25481;SDS011;13395;50.752;4.268;2023-07-31T08:23:26;6.68;;;2.33;;
25481;SDS011;13395;50.752;4.268;2023-07-31T08:25:51;7.10;;;2.70;;
25481;SDS011;13395;50.752;4.268;2023-07-31T08:28:17;8.10;;;2.53;;
25481;SDS011;13395;50.752;4.268;2023-07-31T08:30:42;6.78;;;3.22;;
25481;SDS011;13395;50.752;4.268;2023-07-31T08:33:09;6.10;;;2.65;;
25481;SDS011;13395;50.752;4.268;2023-07-31T08:35:35;8.63;;;2.75;;
25481;SDS011;13395;50.752;4.268;2023-07-31T08:38:01;5.90;;;2.45;;
25481;SDS011;13395;50.752;4.268;2023-07-31T08:40:27;4.93;;;2.80;;
25481;SDS011;13395;50.752;4.268;2023-07-31T08:42:54;7.18;;;2.72;;
25481;SDS011;13395;50.752;4.268;2023-07-31T08:45:27;8.32;;;3.25;;
25481;SDS011;13395;50.752;4.268;2023-07-31T08:47:53;7.15;;;2.65;;
25481;SDS011;13395;50.752;4.268;2023-07-31T08:50:20;9.05;;;2.58;;
25481;SDS011;13395;50.752;4.268;2023-07-31T08:52:47;6.97;;;2.78;;
25481;SDS011;13395;50.752;4.268;2023-07-31T08:55:14;10.75;;;3.20;;
25481;SDS011;13395;50.752;4.268;2023-07-31T08:57:40;8.10;;;3.08;;
25481;SDS011;13395;50.752;4.268;2023-07-31T09:00:08;11.63;;;4.10;;
25481;SDS011;13395;50.752;4.268;2023-07-31T09:02:38;5.47;;;2.53;;
25481;SDS011;13395;50.752;4.268;2023-07-31T09:05:09;7.07;;;3.47;;
25481;SDS011;13395;50.752;4.268;2023-07-31T09:07:36;7.75;;;3.22;;
25481;SDS011;13395;50.752;4.268;2023-07-31T09:10:02;6.75;;;3.55;;
25481;SDS011;13395;50.752;4.268;2023-07-31T09:12:28;8.45;;;3.83;;
25481;SDS011;13395;50.752;4.268;2023-07-31T09:14:55;14.52;;;3.58;;
25481;SDS011;13395;50.752;4.268;2023-07-31T09:17:28;5.05;;;2.85;;
25481;SDS011;13395;50.752;4.268;2023-07-31T09:20:04;7.38;;;3.58;;
25481;SDS011;13395;50.752;4.268;2023-07-31T09:22:44;7.80;;;3.13;;
25481;SDS011;13395;50.752;4.268;2023-07-31T09:25:18;5.75;;;3.10;;
25481;SDS011;13395;50.752;4.268;2023-07-31T09:27:46;7.22;;;3.10;;
25481;SDS011;13395;50.752;4.268;2023-07-31T09:30:16;6.00;;;3.30;;
25481;SDS011;13395;50.752;4.268;2023-07-31T09:32:43;8.30;;;3.15;;
25481;SDS011;13395;50.752;4.268;2023-07-31T09:35:28;8.15;;;3.65;;
25481;SDS011;13395;50.752;4.268;2023-07-31T09:37:57;7.20;;;3.60;;
25481;SDS011;13395;50.752;4.268;2023-07-31T09:40:33;8.87;;;4.03;;
25481;SDS011;13395;50.752;4.268;2023-07-31T09:43:00;8.43;;;3.67;;
25481;SDS011;13395;50.752;4.268;2023-07-31T09:45:28;11.88;;;3.95;;
25481;SDS011;13395;50.752;4.268;2023-07-31T09:47:54;8.25;;;3.38;;
25481;SDS011;13395;50.752;4.268;2023-07-31T09:50:22;5.75;;;3.83;;
25481;SDS011;13395;50.752;4.268;2023-07-31T09:52:48;11.25;;;3.88;;
25481;SDS011;13395;50.752;4.268;2023-07-31T09:55:15;13.35;;;4.38;;
25481;SDS011;13395;50.752;4.268;2023-07-31T09:57:41;11.15;;;3.67;;
25481;SDS011;13395;50.752;4.268;2023-07-31T10:00:12;9.43;;;4.68;;
25481;SDS011;13395;50.752;4.268;2023-07-31T10:02:38;6.70;;;3.60;;
25481;SDS011;13395;50.752;4.268;2023-07-31T10:05:05;8.35;;;3.63;;
25481;SDS011;13395;50.752;4.268;2023-07-31T10:07:33;9.02;;;3.65;;
25481;SDS011;13395;50.752;4.268;2023-07-31T10:10:04;8.65;;;3.78;;
25481;SDS011;13395;50.752;4.268;2023-07-31T10:12:32;12.32;;;3.42;;
25481;SDS011;13395;50.752;4.268;2023-07-31T10:15:00;8.60;;;4.35;;
25481;SDS011;13395;50.752;4.268;2023-07-31T10:17:26;7.60;;;3.97;;
25481;SDS011;13395;50.752;4.268;2023-07-31T10:19:52;13.93;;;4.20;;
25481;SDS011;13395;50.752;4.268;2023-07-31T10:22:19;8.07;;;3.92;;
25481;SDS011;13395;50.752;4.268;2023-07-31T10:24:46;15.70;;;5.43;;
25481;SDS011;13395;50.752;4.268;2023-07-31T10:27:13;10.13;;;4.25;;
25481;SDS011;13395;50.752;4.268;2023-07-31T10:29:39;11.15;;;4.15;;
25481;SDS011;13395;50.752;4.268;2023-07-31T10:32:09;7.13;;;3.88;;
25481;SDS011;13395;50.752;4.268;2023-07-31T10:34:36;9.80;;;4.18;;
25481;SDS011;13395;50.752;4.268;2023-07-31T10:42:28;9.80;;;3.92;;
25481;SDS011;13395;50.752;4.268;2023-07-31T10:45:04;7.03;;;3.95;;
25481;SDS011;13395;50.752;4.268;2023-07-31T10:47:36;8.32;;;4.00;;
25481;SDS011;13395;50.752;4.268;2023-07-31T10:50:19;7.70;;;4.22;;
25481;SDS011;13395;50.752;4.268;2023-07-31T10:52:47;10.80;;;4.25;;
25481;SDS011;13395;50.752;4.268;2023-07-31T10:57:58;10.65;;;5.50;;
25481;SDS011;13395;50.752;4.268;2023-07-31T11:00:34;7.93;;;4.25;;
25481;SDS011;13395;50.752;4.268;2023-07-31T11:03:09;12.88;;;4.07;;
25481;SDS011;13395;50.752;4.268;2023-07-31T11:08:29;12.93;;;4.75;;
25481;SDS011;13395;50.752;4.268;2023-07-31T11:13:28;10.68;;;4.40;;
25481;SDS011;13395;50.752;4.268;2023-07-31T11:15:54;8.82;;;3.95;;
25481;SDS011;13395;50.752;4.268;2023-07-31T11:18:20;7.00;;;4.28;;
25481;SDS011;13395;50.752;4.268;2023-07-31T11:20:45;9.48;;;4.65;;
25481;SDS011;13395;50.752;4.268;2023-07-31T11:23:11;6.70;;;4.03;;
25481;SDS011;13395;50.752;4.268;2023-07-31T11:25:38;7.60;;;2.90;;
25481;SDS011;13395;50.752;4.268;2023-07-31T11:28:10;9.75;;;4.50;;
25481;SDS011;13395;50.752;4.268;2023-07-31T11:30:41;9.63;;;4.45;;
25481;SDS011;13395;50.752;4.268;2023-07-31T11:33:08;9.02;;;4.32;;
25481;SDS011;13395;50.752;4.268;2023-07-31T11:35:45;10.90;;;3.72;;
25481;SDS011;13395;50.752;4.268;2023-07-31T11:38:20;7.82;;;3.83;;
25481;SDS011;13395;50.752;4.268;2023-07-31T11:40:47;11.88;;;4.72;;
25481;SDS011;13395;50.752;4.268;2023-07-31T11:43:13;10.85;;;4.38;;
25481;SDS011;13395;50.752;4.268;2023-07-31T11:45:42;8.32;;;4.18;;
25481;SDS011;13395;50.752;4.268;2023-07-31T11:48:18;9.00;;;4.78;;
25481;SDS011;13395;50.752;4.268;2023-07-31T11:50:48;9.25;;;4.30;;
25481;SDS011;13395;50.752;4.268;2023-07-31T11:53:15;8.35;;;3.78;;
25481;SDS011;13395;50.752;4.268;2023-07-31T11:55:43;8.60;;;4.13;;
25481;SDS011;13395;50.752;4.268;2023-07-31T11:58:10;6.72;;;3.65;;
25481;SDS011;13395;50.752;4.268;2023-07-31T12:00:40;6.68;;;3.70;;
25481;SDS011;13395;50.752;4.268;2023-07-31T12:03:06;9.20;;;3.95;;
25481;SDS011;13395;50.752;4.268;2023-07-31T12:05:32;6.28;;;3.90;;
25481;SDS011;13395;50.752;4.268;2023-07-31T12:07:57;10.85;;;4.38;;
25481;SDS011;13395;50.752;4.268;2023-07-31T12:12:55;7.90;;;4.05;;
25481;SDS011;13395;50.752;4.268;2023-07-31T12:15:22;7.53;;;3.95;;
25481;SDS011;13395;50.752;4.268;2023-07-31T12:17:53;8.68;;;4.45;;
25481;SDS011;13395;50.752;4.268;2023-07-31T12:20:19;8.65;;;3.90;;
25481;SDS011;13395;50.752;4.268;2023-07-31T12:22:45;13.20;;;4.18;;
25481;SDS011;13395;50.752;4.268;2023-07-31T12:25:15;6.38;;;3.50;;
25481;SDS011;13395;50.752;4.268;2023-07-31T12:27:44;7.47;;;3.83;;
25481;SDS011;13395;50.752;4.268;2023-07-31T12:30:29;9.23;;;4.50;;
25481;SDS011;13395;50.752;4.268;2023-07-31T12:32:57;9.27;;;4.88;;
25481;SDS011;13395;50.752;4.268;2023-07-31T12:35:23;6.85;;;4.70;;
25481;SDS011;13395;50.752;4.268;2023-07-31T12:37:48;9.23;;;4.22;;
25481;SDS011;13395;50.752;4.268;2023-07-31T12:40:14;10.30;;;4.07;;
25481;SDS011;13395;50.752;4.268;2023-07-31T12:42:40;7.38;;;4.35;;
25481;SDS011;13395;50.752;4.268;2023-07-31T12:45:06;7.18;;;4.20;;
25481;SDS011;13395;50.752;4.268;2023-07-31T12:50:01;8.43;;;3.75;;
25481;SDS011;13395;50.752;4.268;2023-07-31T12:52:27;7.32;;;4.20;;
25481;SDS011;13395;50.752;4.268;2023-07-31T12:54:52;9.50;;;4.25;;
25481;SDS011;13395;50.752;4.268;2023-07-31T12:57:18;7.57;;;3.42;;
25481;SDS011;13395;50.752;4.268;2023-07-31T12:59:44;8.00;;;4.30;;
25481;SDS011;13395;50.752;4.268;2023-07-31T13:02:10;11.95;;;3.60;;
25481;SDS011;13395;50.752;4.268;2023-07-31T13:04:36;7.28;;;3.75;;
25481;SDS011;13395;50.752;4.268;2023-07-31T13:07:01;7.55;;;4.22;;
25481;SDS011;13395;50.752;4.268;2023-07-31T13:09:27;6.25;;;3.03;;
25481;SDS011;13395;50.752;4.268;2023-07-31T13:11:52;6.93;;;3.05;;
25481;SDS011;13395;50.752;4.268;2023-07-31T13:14:18;10.25;;;4.28;;
25481;SDS011;13395;50.752;4.268;2023-07-31T13:16:43;7.30;;;3.15;;
25481;SDS011;13395;50.752;4.268;2023-07-31T13:19:09;7.10;;;3.60;;
25481;SDS011;13395;50.752;4.268;2023-07-31T13:21:34;8.05;;;3.65;;
25481;SDS011;13395;50.752;4.268;2023-07-31T13:24:01;8.70;;;3.22;;
25481;SDS011;13395;50.752;4.268;2023-07-31T13:26:27;6.07;;;2.92;;
25481;SDS011;13395;50.752;4.268;2023-07-31T13:28:53;6.60;;;3.42;;
25481;SDS011;13395;50.752;4.268;2023-07-31T13:31:18;10.40;;;4.25;;
25481;SDS011;13395;50.752;4.268;2023-07-31T13:33:44;7.85;;;2.97;;
25481;SDS011;13395;50.752;4.268;2023-07-31T13:36:09;6.85;;;3.75;;
25481;SDS011;13395;50.752;4.268;2023-07-31T13:38:36;7.45;;;3.83;;
25481;SDS011;13395;50.752;4.268;2023-07-31T13:41:01;11.73;;;4.05;;
25481;SDS011;13395;50.752;4.268;2023-07-31T13:43:27;10.30;;;3.47;;
25481;SDS011;13395;50.752;4.268;2023-07-31T13:45:52;10.35;;;4.00;;
25481;SDS011;13395;50.752;4.268;2023-07-31T13:48:18;6.90;;;3.72;;
25481;SDS011;13395;50.752;4.268;2023-07-31T13:50:43;5.68;;;3.10;;
25481;SDS011;13395;50.752;4.268;2023-07-31T13:53:09;5.38;;;3.10;;
25481;SDS011;13395;50.752;4.268;2023-07-31T13:55:35;6.72;;;2.95;;
25481;SDS011;13395;50.752;4.268;2023-07-31T13:58:00;7.40;;;3.33;;
25481;SDS011;13395;50.752;4.268;2023-07-31T14:00:26;7.57;;;3.08;;
25481;SDS011;13395;50.752;4.268;2023-07-31T14:02:53;8.55;;;4.35;;
25481;SDS011;13395;50.752;4.268;2023-07-31T14:05:19;8.77;;;3.58;;
25481;SDS011;13395;50.752;4.268;2023-07-31T14:07:44;6.32;;;3.13;;
25481;SDS011;13395;50.752;4.268;2023-07-31T14:10:10;7.93;;;3.20;;
25481;SDS011;13395;50.752;4.268;2023-07-31T14:12:36;7.93;;;3.33;;
25481;SDS011;13395;50.752;4.268;2023-07-31T14:15:01;5.25;;;2.70;;
25481;SDS011;13395;50.752;4.268;2023-07-31T14:17:27;6.47;;;3.05;;
25481;SDS011;13395;50.752;4.268;2023-07-31T14:19:53;5.80;;;2.97;;
25481;SDS011;13395;50.752;4.268;2023-07-31T14:22:29;7.43;;;3.13;;
25481;SDS011;13395;50.752;4.268;2023-07-31T14:24:55;5.38;;;2.90;;
25481;SDS011;13395;50.752;4.268;2023-07-31T14:27:21;4.22;;;2.53;;
25481;SDS011;13395;50.752;4.268;2023-07-31T14:29:46;4.53;;;2.47;;
25481;SDS011;13395;50.752;4.268;2023-07-31T14:32:12;6.10;;;3.20;;
25481;SDS011;13395;50.752;4.268;2023-07-31T14:34:37;4.53;;;2.65;;
25481;SDS011;13395;50.752;4.268;2023-07-31T14:37:03;5.45;;;2.72;;
25481;SDS011;13395;50.752;4.268;2023-07-31T14:39:29;4.78;;;2.63;;
25481;SDS011;13395;50.752;4.268;2023-07-31T14:41:54;3.92;;;2.05;;
25481;SDS011;13395;50.752;4.268;2023-07-31T14:44:20;5.43;;;2.28;;
25481;SDS011;13395;50.752;4.268;2023-07-31T14:46:45;3.40;;;2.03;;
25481;SDS011;13395;50.752;4.268;2023-07-31T14:49:11;4.03;;;1.83;;
25481;SDS011;13395;50.752;4.268;2023-07-31T14:51:36;4.43;;;2.15;;
25481;SDS011;13395;50.752;4.268;2023-07-31T14:54:02;3.83;;;2.10;;
25481;SDS011;13395;50.752;4.268;2023-07-31T14:56:28;4.32;;;2.45;;
25481;SDS011;13395;50.752;4.268;2023-07-31T14:58:53;3.55;;;1.90;;
25481;SDS011;13395;50.752;4.268;2023-07-31T15:01:19;3.05;;;1.90;;
25481;SDS011;13395;50.752;4.268;2023-07-31T15:03:44;4.05;;;1.85;;